Terminal Aerodrome Forecast
Issued by NWS

Home | Current Version | Previous Version | Text Only | Print | Product List | Glossary On
Versions: 1 2 3 4 5 6 7 8 9 10 11 12 13 14 15 16 17 18 19
000
FTUS41 KBGM 022354 AAA
TAFRME
TAF AMD
KRME 022354Z 0300/0324 28008KT P6SM OVC035
     FM030400 32003KT P6SM OVC025
      TEMPO 0308/0311 4SM BR OVC015
     FM031400 33004KT P6SM BKN050=

USA.gov is the U.S. government's official web portal to all federal, state and local government web resources and services.